Time;durP1;ratioP1;P1;durP2;ratioP2;P2;SDS_P1;SDS_P2;PMS_P1;PMS_P2;Temp;Humidity;BMP_temperature;BMP_pressure;BME280_temperature;BME280_humidity;BME280_pressure;Samples;Min_cycle;Max_cycle;Signal;HPM_P1;HPM_P2
2022/07/20 00:01:31;;;;;;;7.82;4.20;;;25.60;56.10;;;;;;4979561;28;20026;-69
2022/07/20 00:03:58;;;;;;;6.35;3.97;;;25.60;56.30;;;;;;4992458;28;20035;-69
2022/07/20 00:06:23;;;;;;;8.73;4.35;;;25.60;56.50;;;;;;4993306;28;20142;-70
2022/07/20 00:11:33;;;;;;;8.63;4.57;;;25.50;56.60;;;;;;4988602;28;20106;-69
2022/07/20 00:14:01;;;;;;;7.47;5.35;;;25.50;56.80;;;;;;4993084;28;20136;-69
2022/07/20 00:16:30;;;;;;;9.70;5.43;;;25.50;57.10;;;;;;4992097;28;20026;-70
2022/07/20 00:18:55;;;;;;;11.40;5.30;;;25.40;57.10;;;;;;4992606;28;20081;-70
2022/07/20 00:21:21;;;;;;;9.07;5.07;;;25.30;57.30;;;;;;4992336;28;20469;-70
2022/07/20 00:23:47;;;;;;;8.27;5.00;;;25.30;57.40;;;;;;4990720;28;20026;-69
2022/07/20 00:26:14;;;;;;;5.63;4.10;;;25.30;57.50;;;;;;4992152;28;20038;-69
2022/07/20 00:28:40;;;;;;;7.53;4.82;;;25.30;57.70;;;;;;4992257;28;20042;-70
2022/07/20 00:31:06;;;;;;;5.90;4.20;;;25.20;57.70;;;;;;4992651;28;20034;-70
2022/07/20 00:33:31;;;;;;;9.35;4.88;;;25.20;57.90;;;;;;4991470;28;20382;-70
2022/07/20 00:35:58;;;;;;;6.60;4.88;;;25.20;58.00;;;;;;4992636;28;20057;-70
2022/07/20 00:38:23;;;;;;;8.43;4.63;;;25.10;58.00;;;;;;4992321;28;20109;-70
2022/07/20 00:40:49;;;;;;;9.63;5.15;;;25.10;58.20;;;;;;4992968;28;20724;-70
2022/07/20 00:43:15;;;;;;;5.97;4.47;;;25.10;58.30;;;;;;4992417;28;20023;-70
2022/07/20 00:45:41;;;;;;;8.32;4.70;;;25.10;58.40;;;;;;4992839;28;20405;-70
2022/07/20 00:48:08;;;;;;;7.75;5.28;;;25.00;58.30;;;;;;4974383;28;20105;-69
2022/07/20 00:50:33;;;;;;;7.32;4.50;;;25.00;58.50;;;;;;4992065;28;20434;-69
2022/07/20 00:53:02;;;;;;;6.88;4.75;;;24.90;58.50;;;;;;4990618;28;20057;-70
2022/07/20 00:55:28;;;;;;;7.60;4.63;;;25.00;58.70;;;;;;4977177;28;20110;-69
2022/07/20 00:57:54;;;;;;;5.28;4.47;;;24.90;58.60;;;;;;4984267;28;20109;-69
2022/07/20 01:00:20;;;;;;;6.25;4.90;;;24.90;58.70;;;;;;4992097;28;20033;-69
2022/07/20 01:02:46;;;;;;;6.78;4.60;;;24.90;58.80;;;;;;4991567;28;20061;-69
2022/07/20 01:05:14;;;;;;;7.53;4.28;;;24.90;58.90;;;;;;4991658;28;20043;-69
2022/07/20 01:07:42;;;;;;;7.38;4.88;;;24.80;58.90;;;;;;4991740;28;20015;-69
2022/07/20 01:10:08;;;;;;;7.55;5.30;;;24.80;59.00;;;;;;4992043;28;20525;-69
2022/07/20 01:12:34;;;;;;;8.07;4.65;;;24.80;59.00;;;;;;4991842;28;20025;-70
2022/07/20 01:14:59;;;;;;;8.90;4.97;;;24.80;59.00;;;;;;4991473;28;20026;-70
2022/07/20 01:17:25;;;;;;;7.22;4.70;;;24.80;59.10;;;;;;4974089;28;20027;-70
2022/07/20 01:19:50;;;;;;;9.15;4.45;;;24.70;59.10;;;;;;4991945;28;20031;-70
2022/07/20 01:22:16;;;;;;;7.25;5.30;;;24.70;59.30;;;;;;4974290;28;20033;-69
2022/07/20 01:24:42;;;;;;;7.20;4.75;;;24.70;59.20;;;;;;4975082;28;20038;-69
2022/07/20 01:27:07;;;;;;;7.53;4.72;;;24.70;59.30;;;;;;4991356;28;20026;-70
2022/07/20 01:29:33;;;;;;;7.22;4.93;;;24.70;59.50;;;;;;4995268;28;20026;-70
2022/07/20 01:31:58;;;;;;;8.35;4.65;;;24.60;59.40;;;;;;4994513;28;20508;-70
2022/07/20 01:34:24;;;;;;;6.72;4.57;;;24.60;59.40;;;;;;4995950;28;20042;-69
2022/07/20 01:36:49;;;;;;;6.57;4.40;;;24.60;59.50;;;;;;4995148;28;20077;-70
2022/07/20 01:39:15;;;;;;;6.28;4.57;;;24.60;59.60;;;;;;4996067;28;20027;-70
2022/07/20 01:41:40;;;;;;;6.10;5.18;;;24.60;59.60;;;;;;4993973;28;20058;-70
2022/07/20 01:44:06;;;;;;;12.85;5.70;;;24.60;59.70;;;;;;4995530;28;20026;-69
2022/07/20 01:46:32;;;;;;;7.22;5.18;;;24.60;59.80;;;;;;4993468;28;20041;-69
2022/07/20 01:48:58;;;;;;;7.93;5.03;;;24.60;59.80;;;;;;4995054;28;20042;-70
2022/07/20 01:51:24;;;;;;;7.28;4.93;;;24.50;59.90;;;;;;4978051;28;20089;-70
2022/07/20 01:53:49;;;;;;;5.88;4.63;;;24.50;60.00;;;;;;4995370;28;20072;-70
2022/07/20 01:56:15;;;;;;;7.82;4.75;;;24.50;60.10;;;;;;4995902;28;20457;-70
2022/07/20 01:58:40;;;;;;;5.95;4.70;;;24.50;60.30;;;;;;4994749;28;20041;-70
2022/07/20 02:01:06;;;;;;;6.65;4.80;;;24.40;60.30;;;;;;4995089;28;20034;-70
2022/07/20 02:03:32;;;;;;;7.75;5.07;;;24.40;60.30;;;;;;4977340;28;20027;-70
2022/07/20 02:05:57;;;;;;;7.35;5.10;;;24.30;60.40;;;;;;4995458;28;20536;-70
2022/07/20 02:08:25;;;;;;;6.85;5.32;;;24.30;60.60;;;;;;4994093;28;20110;-70
2022/07/20 02:10:51;;;;;;;9.57;5.78;;;24.30;60.70;;;;;;4995539;28;20480;-70
2022/07/20 02:13:17;;;;;;;7.63;5.18;;;24.30;60.80;;;;;;4994706;28;20121;-70
2022/07/20 02:18:28;;;;;;;16.83;5.25;;;24.20;61.00;;;;;;4994501;28;20764;-69
2022/07/20 02:20:53;;;;;;;8.85;5.63;;;24.20;61.20;;;;;;4995445;28;20473;-69
2022/07/20 02:23:19;;;;;;;9.05;5.13;;;24.10;61.40;;;;;;4995276;28;20022;-70
2022/07/20 02:25:46;;;;;;;7.78;5.72;;;24.10;61.60;;;;;;4994669;28;20046;-70
2022/07/20 02:28:12;;;;;;;7.40;5.22;;;24.10;61.60;;;;;;4996016;28;20030;-70
2022/07/20 02:30:38;;;;;;;7.82;5.57;;;24.10;61.90;;;;;;4996411;28;20042;-70
2022/07/20 02:33:04;;;;;;;7.10;5.30;;;24.00;61.90;;;;;;4995166;28;20085;-70
2022/07/20 02:35:29;;;;;;;8.75;5.25;;;24.00;61.90;;;;;;4977897;28;20034;-71
2022/07/20 02:37:55;;;;;;;7.32;5.10;;;24.00;62.10;;;;;;4993910;28;20057;-70
2022/07/20 02:40:21;;;;;;;6.78;4.75;;;23.90;62.20;;;;;;4994502;28;20110;-70
2022/07/20 02:42:47;;;;;;;9.23;5.07;;;23.90;62.20;;;;;;4994181;28;20030;-70
2022/07/20 02:45:13;;;;;;;7.53;5.25;;;23.80;62.50;;;;;;4994623;28;20030;-69
2022/07/20 02:47:43;;;;;;;8.75;5.10;;;23.80;62.60;;;;;;4993438;28;20109;-70
2022/07/20 02:50:09;;;;;;;6.90;4.90;;;23.80;62.80;;;;;;4993759;28;20030;-70
2022/07/20 02:52:35;;;;;;;8.05;4.85;;;23.70;62.80;;;;;;4994128;28;20038;-70
2022/07/20 02:55:03;;;;;;;9.65;5.63;;;23.70;62.80;;;;;;5003909;28;20076;-71
2022/07/20 02:57:30;;;;;;;7.50;4.93;;;23.70;63.10;;;;;;5004332;28;20041;-70
2022/07/20 02:59:55;;;;;;;6.75;5.20;;;23.70;63.20;;;;;;4994600;28;20046;-70
2022/07/20 03:02:21;;;;;;;8.63;5.03;;;23.60;63.50;;;;;;4994047;28;20066;-70
2022/07/20 03:04:46;;;;;;;7.95;5.57;;;23.60;63.50;;;;;;4994491;28;20132;-70
2022/07/20 03:07:12;;;;;;;9.25;5.97;;;23.60;63.60;;;;;;4992680;28;20620;-70
2022/07/20 03:09:37;;;;;;;9.95;5.07;;;23.50;63.70;;;;;;4994388;28;20664;-70
2022/07/20 03:12:03;;;;;;;8.85;5.50;;;23.50;63.80;;;;;;4993458;28;20029;-70
2022/07/20 03:14:29;;;;;;;7.72;4.85;;;23.50;63.80;;;;;;4994059;28;20014;-69
2022/07/20 03:16:54;;;;;;;7.00;5.32;;;23.40;64.00;;;;;;4993399;28;20106;-70
2022/07/20 03:19:20;;;;;;;8.95;5.20;;;23.50;64.40;;;;;;4994250;28;20076;-69
2022/07/20 03:21:46;;;;;;;8.73;5.70;;;23.40;64.50;;;;;;4993545;28;20034;-69
2022/07/20 03:24:11;;;;;;;6.32;4.97;;;23.40;64.50;;;;;;4993752;28;20029;-69
2022/07/20 03:26:37;;;;;;;8.23;4.68;;;23.40;64.70;;;;;;4992540;28;20037;-69
2022/07/20 03:29:04;;;;;;;7.97;5.93;;;23.30;64.90;;;;;;4993664;28;20369;-69
2022/07/20 03:31:29;;;;;;;7.18;5.05;;;23.30;65.10;;;;;;4993244;28;20038;-69
2022/07/20 03:33:55;;;;;;;9.07;5.43;;;23.30;65.20;;;;;;4991988;28;20046;-69
2022/07/20 03:36:21;;;;;;;6.88;5.32;;;23.20;65.20;;;;;;4993513;28;20037;-69
2022/07/20 03:38:47;;;;;;;9.13;5.20;;;23.20;65.50;;;;;;4993015;28;20081;-69
2022/07/20 03:41:13;;;;;;;6.95;5.50;;;23.20;65.70;;;;;;4993477;28;20406;-69
2022/07/20 03:43:38;;;;;;;10.23;5.78;;;23.20;65.70;;;;;;4992143;28;20061;-69
2022/07/20 03:46:04;;;;;;;7.63;5.65;;;23.20;65.60;;;;;;4993557;28;20062;-69
2022/07/20 03:48:29;;;;;;;9.45;5.93;;;23.20;65.70;;;;;;4993022;28;20037;-68
2022/07/20 03:50:55;;;;;;;7.25;5.13;;;23.20;65.80;;;;;;4992778;28;20030;-68
2022/07/20 03:53:21;;;;;;;8.48;5.85;;;23.20;65.80;;;;;;4993001;28;20037;-68
2022/07/20 03:55:46;;;;;;;7.25;5.47;;;23.20;65.80;;;;;;4975817;28;20046;-69
2022/07/20 03:58:12;;;;;;;7.97;5.75;;;23.30;65.80;;;;;;4987803;28;20026;-68
2022/07/20 04:00:38;;;;;;;7.35;4.95;;;23.20;65.90;;;;;;4992892;28;20026;-69
2022/07/20 04:03:04;;;;;;;9.13;5.13;;;23.20;66.00;;;;;;4992343;28;20037;-70
2022/07/20 04:05:29;;;;;;;6.85;5.50;;;23.20;66.00;;;;;;4993066;28;20035;-69
2022/07/20 04:07:55;;;;;;;9.68;5.55;;;23.20;65.90;;;;;;4992047;28;20109;-69
2022/07/20 04:10:20;;;;;;;9.52;5.15;;;23.20;65.80;;;;;;4992684;28;20045;-69
2022/07/20 04:12:46;;;;;;;12.50;6.03;;;23.30;65.90;;;;;;4992441;28;20025;-69
2022/07/20 04:15:11;;;;;;;8.25;5.18;;;23.30;66.00;;;;;;4993019;28;20080;-68
2022/07/20 04:17:41;;;;;;;13.20;5.60;;;23.30;66.10;;;;;;4992383;28;20552;-68
2022/07/20 04:20:07;;;;;;;8.45;5.75;;;23.20;66.10;;;;;;4992884;28;20069;-69
2022/07/20 04:22:33;;;;;;;8.20;5.28;;;23.30;66.20;;;;;;4991497;28;20030;-69
2022/07/20 04:24:59;;;;;;;8.07;5.45;;;23.30;66.40;;;;;;4992914;28;20097;-68
2022/07/20 04:27:24;;;;;;;10.20;5.82;;;23.30;66.50;;;;;;4992310;28;20370;-68
2022/07/20 04:29:50;;;;;;;9.52;6.10;;;23.30;66.50;;;;;;4993051;28;20397;-69
2022/07/20 04:32:16;;;;;;;9.05;5.95;;;23.30;66.60;;;;;;4991845;28;20113;-68
2022/07/20 04:34:42;;;;;;;10.02;6.18;;;23.30;66.80;;;;;;4992637;28;20058;-68
2022/07/20 04:37:08;;;;;;;9.65;6.47;;;23.30;66.70;;;;;;4991894;28;20030;-68
2022/07/20 04:39:34;;;;;;;12.13;5.45;;;23.40;66.80;;;;;;4992753;28;20026;-68
2022/07/20 04:41:59;;;;;;;9.63;6.43;;;23.40;67.00;;;;;;4990240;28;20038;-68
2022/07/20 04:44:25;;;;;;;8.85;5.78;;;23.40;67.10;;;;;;4992789;28;20030;-68
2022/07/20 04:46:50;;;;;;;7.53;5.35;;;23.50;67.20;;;;;;4991386;28;20034;-68
2022/07/20 04:49:16;;;;;;;6.85;5.45;;;23.50;67.30;;;;;;4991207;28;20026;-68
2022/07/20 04:51:42;;;;;;;9.80;6.10;;;23.50;67.50;;;;;;4991769;28;20030;-68
2022/07/20 04:54:07;;;;;;;13.85;6.03;;;23.50;67.70;;;;;;4992474;28;20027;-69
2022/07/20 04:56:33;;;;;;;8.27;5.90;;;23.50;67.60;;;;;;4992081;28;20502;-68
2022/07/20 04:59:00;;;;;;;7.72;6.43;;;23.50;68.00;;;;;;4991423;28;20200;-69
2022/07/20 05:01:26;;;;;;;8.07;6.25;;;23.60;67.60;;;;;;4992176;28;20117;-69
2022/07/20 05:03:52;;;;;;;8.75;5.50;;;23.60;68.00;;;;;;4992078;28;20109;-67
2022/07/20 05:06:17;;;;;;;9.38;5.93;;;23.60;67.90;;;;;;4992252;28;20041;-69
2022/07/20 05:08:44;;;;;;;8.70;5.88;;;23.60;67.90;;;;;;4970834;28;20541;-69
2022/07/20 05:11:10;;;;;;;8.80;5.68;;;23.60;68.20;;;;;;4986810;28;20041;-69
2022/07/20 05:13:36;;;;;;;11.10;6.78;;;23.70;67.80;;;;;;4990327;28;20038;-69
2022/07/20 05:16:01;;;;;;;9.63;5.70;;;23.70;67.80;;;;;;4992287;28;20030;-69
2022/07/20 05:18:30;;;;;;;10.10;6.40;;;23.70;67.60;;;;;;4991914;28;20109;-69
2022/07/20 05:20:56;;;;;;;8.82;6.03;;;23.80;67.80;;;;;;4992057;28;20478;-68
2022/07/20 05:23:22;;;;;;;10.13;6.40;;;23.80;67.70;;;;;;4992539;28;20452;-68
2022/07/20 05:25:49;;;;;;;9.43;6.68;;;23.90;68.00;;;;;;4992753;28;20034;-68
2022/07/20 05:28:18;;;;;;;9.57;6.38;;;23.90;67.90;;;;;;4990653;28;20087;-68
2022/07/20 05:30:45;;;;;;;13.60;6.68;;;24.00;68.00;;;;;;4991143;28;20034;-68
2022/07/20 05:33:11;;;;;;;15.98;6.82;;;24.00;67.80;;;;;;4991152;28;20043;-69
2022/07/20 05:35:37;;;;;;;10.48;5.85;;;24.10;67.80;;;;;;4992092;28;20073;-69
2022/07/20 05:38:02;;;;;;;11.43;6.35;;;24.20;67.50;;;;;;4988952;28;20092;-72
2022/07/20 05:40:28;;;;;;;10.35;6.18;;;24.20;67.60;;;;;;4966095;28;20609;-71
2022/07/20 05:42:53;;;;;;;11.20;6.60;;;24.20;67.60;;;;;;4988019;28;20023;-70
2022/07/20 05:45:19;;;;;;;12.70;6.40;;;24.30;67.20;;;;;;4990124;28;20052;-71
2022/07/20 05:47:45;;;;;;;10.13;6.60;;;24.30;67.20;;;;;;4988726;28;20105;-69
2022/07/20 05:50:11;;;;;;;9.95;6.32;;;24.30;67.40;;;;;;4987395;28;20465;-71
2022/07/20 05:52:38;;;;;;;13.25;6.75;;;24.40;67.50;;;;;;4989801;28;20040;-70
2022/07/20 05:55:04;;;;;;;11.90;6.60;;;24.40;67.20;;;;;;4991130;28;20378;-71
2022/07/20 05:57:30;;;;;;;9.98;6.53;;;24.50;67.20;;;;;;4990112;28;20492;-70
2022/07/20 05:59:55;;;;;;;12.32;6.80;;;24.50;67.30;;;;;;4974419;28;20026;-70
2022/07/20 06:02:21;;;;;;;11.75;7.63;;;24.60;67.30;;;;;;4988423;28;20036;-70
2022/07/20 06:04:46;;;;;;;8.60;6.75;;;24.70;67.40;;;;;;4986566;28;20225;-70
2022/07/20 06:07:12;;;;;;;9.15;6.95;;;24.70;67.10;;;;;;4989604;28;20030;-70
2022/07/20 06:09:37;;;;;;;12.00;7.53;;;24.80;67.00;;;;;;4991319;28;20026;-70
2022/07/20 06:12:03;;;;;;;12.23;6.80;;;24.90;67.10;;;;;;4989834;28;20069;-70
2022/07/20 06:14:29;;;;;;;10.05;6.45;;;24.90;67.00;;;;;;4993261;28;20037;-70
2022/07/20 06:16:54;;;;;;;11.27;6.85;;;25.00;67.30;;;;;;4993026;28;20030;-70
2022/07/20 06:19:20;;;;;;;8.43;5.93;;;25.00;67.10;;;;;;4987924;28;20026;-70
2022/07/20 06:21:45;;;;;;;11.85;7.18;;;25.10;67.10;;;;;;4988289;28;20544;-69
2022/07/20 06:24:11;;;;;;;15.52;6.35;;;25.20;67.10;;;;;;4994860;28;20050;-69
2022/07/20 06:26:36;;;;;;;13.18;6.82;;;25.30;66.90;;;;;;4992582;28;20030;-69
2022/07/20 06:29:02;;;;;;;9.38;6.63;;;25.30;66.60;;;;;;4993197;28;20224;-69
2022/07/20 06:31:28;;;;;;;12.48;7.47;;;25.40;66.60;;;;;;4991552;28;20559;-69
2022/07/20 06:33:53;;;;;;;13.07;7.28;;;25.50;66.50;;;;;;4992564;28;20047;-69
2022/07/20 06:36:19;;;;;;;12.10;6.57;;;25.60;66.50;;;;;;4990770;28;20535;-70
2022/07/20 06:38:45;;;;;;;10.32;6.20;;;25.70;65.90;;;;;;4993972;28;20034;-70
2022/07/20 06:41:11;;;;;;;13.52;6.82;;;25.80;65.80;;;;;;4993724;28;20154;-69
2022/07/20 06:43:36;;;;;;;10.15;6.85;;;25.90;66.10;;;;;;4993989;28;20065;-69
2022/07/20 06:46:02;;;;;;;13.35;6.43;;;26.00;66.00;;;;;;4993733;28;20149;-71
2022/07/20 06:48:28;;;;;;;10.90;6.78;;;26.10;65.80;;;;;;4992602;28;20027;-72
2022/07/20 06:50:53;;;;;;;11.52;6.68;;;26.20;65.40;;;;;;4992978;28;20033;-72
2022/07/20 06:53:19;;;;;;;11.88;7.25;;;26.30;65.80;;;;;;4993354;28;20030;-71
2022/07/20 06:55:45;;;;;;;12.32;7.25;;;26.40;64.90;;;;;;4993854;28;20050;-73
2022/07/20 06:58:11;;;;;;;12.75;7.28;;;26.50;65.30;;;;;;4993548;28;20042;-72
2022/07/20 07:00:37;;;;;;;20.63;7.30;;;26.50;64.50;;;;;;4994337;28;20030;-72
2022/07/20 07:03:03;;;;;;;13.77;6.38;;;26.60;64.00;;;;;;4990032;28;20029;-72
2022/07/20 07:05:28;;;;;;;10.43;7.00;;;26.70;63.80;;;;;;4992855;28;20042;-72
2022/07/20 07:07:54;;;;;;;9.13;6.65;;;26.80;63.40;;;;;;4992941;28;20038;-72
2022/07/20 07:10:20;;;;;;;11.95;6.80;;;26.90;63.10;;;;;;4992014;28;20045;-72
2022/07/20 07:12:45;;;;;;;11.90;6.95;;;27.00;63.10;;;;;;4974496;28;20470;-72
2022/07/20 07:15:11;;;;;;;8.88;6.72;;;27.10;62.60;;;;;;4992915;28;20022;-71
2022/07/20 07:17:37;;;;;;;13.48;6.20;;;27.20;62.10;;;;;;4991863;28;20117;-72
2022/07/20 07:20:03;;;;;;;14.63;5.93;;;27.30;62.00;;;;;;4993741;28;20038;-72
2022/07/20 07:22:30;;;;;;;9.70;5.97;;;27.40;61.70;;;;;;4993007;28;20401;-71
2022/07/20 07:24:56;;;;;;;16.98;6.32;;;27.40;61.60;;;;;;4991743;28;20046;-72
2022/07/20 07:27:21;;;;;;;9.80;5.88;;;27.60;61.50;;;;;;4991692;28;20382;-72
2022/07/20 07:29:47;;;;;;;9.50;6.30;;;27.60;60.90;;;;;;4993206;28;20117;-72
2022/07/20 07:32:13;;;;;;;13.57;7.03;;;27.70;60.80;;;;;;4991979;28;20409;-73
2022/07/20 07:34:39;;;;;;;10.43;5.82;;;27.80;60.70;;;;;;4991888;28;20134;-72
2022/07/20 07:37:04;;;;;;;8.38;6.00;;;27.90;60.60;;;;;;4971252;28;20394;-69
2022/07/20 07:39:30;;;;;;;8.52;5.03;;;28.10;60.10;;;;;;4994137;28;20030;-71
2022/07/20 07:41:55;;;;;;;12.70;6.15;;;28.10;60.10;;;;;;4994532;28;20476;-70
2022/07/20 07:44:21;;;;;;;10.50;5.32;;;28.30;60.10;;;;;;4993850;28;20438;-70
2022/07/20 07:46:46;;;;;;;26.83;6.32;;;28.30;59.10;;;;;;4990266;28;20034;-70
2022/07/20 07:49:12;;;;;;;10.38;5.40;;;28.50;58.80;;;;;;4959615;28;20080;-71
2022/07/20 07:51:38;;;;;;;10.30;5.88;;;28.60;58.70;;;;;;4973636;28;20464;-70
2022/07/20 07:54:04;;;;;;;10.70;5.68;;;28.70;58.50;;;;;;4993717;28;20343;-70
2022/07/20 07:56:30;;;;;;;9.25;5.40;;;28.80;58.10;;;;;;4991839;28;20023;-70
2022/07/20 07:58:55;;;;;;;9.90;5.38;;;28.90;57.60;;;;;;4993391;28;20034;-70
2022/07/20 08:01:21;;;;;;;9.90;5.63;;;29.00;57.30;;;;;;4992706;28;20045;-70
2022/07/20 08:03:46;;;;;;;8.80;5.30;;;29.10;57.40;;;;;;4992323;28;20042;-69
2022/07/20 08:06:12;;;;;;;8.13;5.22;;;29.20;57.30;;;;;;4991296;28;20035;-71
2022/07/20 08:08:38;;;;;;;7.57;5.05;;;29.30;57.40;;;;;;4992682;28;20030;-71
2022/07/20 08:11:04;;;;;;;8.68;4.78;;;29.40;56.90;;;;;;4991914;28;20019;-69
2022/07/20 08:13:30;;;;;;;7.20;4.93;;;29.50;56.70;;;;;;4974747;28;20034;-70
2022/07/20 08:15:55;;;;;;;8.75;5.65;;;29.60;56.40;;;;;;4974231;28;20029;-69
2022/07/20 08:18:22;;;;;;;11.63;5.30;;;29.70;56.10;;;;;;4991715;28;20055;-70
2022/07/20 08:20:48;;;;;;;8.95;5.18;;;29.80;56.10;;;;;;4991147;28;20540;-70
2022/07/20 08:23:13;;;;;;;12.07;6.22;;;29.90;56.20;;;;;;4991527;28;20037;-70
2022/07/20 08:25:39;;;;;;;11.95;5.78;;;30.00;56.40;;;;;;4991587;28;20452;-70
2022/07/20 08:28:17;;;;;;;11.43;5.30;;;30.10;56.20;;;;;;4990983;28;20030;-72
2022/07/20 08:30:46;;;;;;;9.10;4.93;;;30.20;55.50;;;;;;4992022;28;20072;-69
2022/07/20 08:33:11;;;;;;;12.13;5.57;;;30.30;56.60;;;;;;4989481;28;20469;-71
2022/07/20 08:35:37;;;;;;;9.77;5.78;;;30.40;55.90;;;;;;4988151;28;20116;-71
2022/07/20 08:38:04;;;;;;;8.80;5.60;;;30.50;55.60;;;;;;4973540;28;20106;-70
2022/07/20 08:40:29;;;;;;;7.93;5.70;;;30.60;55.50;;;;;;4992778;28;20376;-70
2022/07/20 08:42:56;;;;;;;8.40;5.93;;;30.60;54.80;;;;;;4990310;28;20090;-70
2022/07/20 08:45:22;;;;;;;12.50;5.82;;;30.70;54.50;;;;;;4990777;28;20477;-70
2022/07/20 08:47:49;;;;;;;12.18;5.85;;;30.80;54.90;;;;;;4974417;28;20548;-70
2022/07/20 08:50:22;;;;;;;9.75;5.75;;;30.90;54.80;;;;;;4974132;28;20053;-70
2022/07/20 08:52:47;;;;;;;9.95;5.25;;;31.00;54.70;;;;;;4991614;28;20014;-70
2022/07/20 08:55:13;;;;;;;7.88;5.47;;;31.10;54.00;;;;;;4991375;28;20037;-70
2022/07/20 08:57:38;;;;;;;11.73;5.75;;;31.30;53.90;;;;;;4982054;28;20037;-70
2022/07/20 09:00:05;;;;;;;10.10;5.32;;;31.30;53.60;;;;;;4989542;28;20030;-70
2022/07/20 09:02:48;;;;;;;10.77;5.53;;;31.40;53.30;;;;;;4990681;28;20043;-71
2022/07/20 09:05:14;;;;;;;10.17;4.97;;;31.50;53.20;;;;;;4991503;28;20080;-70
2022/07/20 09:07:43;;;;;;;7.18;4.85;;;31.60;53.10;;;;;;4991706;28;20054;-69
2022/07/20 09:10:14;;;;;;;7.85;4.72;;;31.60;52.60;;;;;;4988454;28;20057;-71
2022/07/20 09:12:59;;;;;;;9.43;4.93;;;31.70;52.70;;;;;;4991317;28;20030;-70
2022/07/20 09:15:28;;;;;;;7.75;4.75;;;31.80;52.10;;;;;;4990403;28;20022;-70
2022/07/20 09:18:12;;;;;;;6.50;4.32;;;31.90;51.70;;;;;;4991288;28;20077;-71
2022/07/20 09:21:02;;;;;;;7.28;4.63;;;32.10;51.40;;;;;;4990093;28;20102;-69
2022/07/20 09:23:44;;;;;;;8.82;4.68;;;32.10;51.50;;;;;;4983680;28;20026;-71
2022/07/20 09:26:10;;;;;;;6.82;4.93;;;32.20;51.60;;;;;;4972145;28;20062;-71
2022/07/20 09:28:41;;;;;;;10.77;4.35;;;32.30;51.00;;;;;;4991161;28;20118;-69
2022/07/20 09:31:10;;;;;;;9.38;4.32;;;32.40;50.80;;;;;;4990743;28;20026;-71
2022/07/20 09:33:36;;;;;;;9.32;4.70;;;32.40;50.50;;;;;;4989612;28;20100;-70
2022/07/20 09:36:04;;;;;;;7.70;4.63;;;32.50;50.60;;;;;;4988935;28;20026;-70
2022/07/20 09:38:33;;;;;;;6.60;5.32;;;32.60;50.50;;;;;;4990392;28;20030;-70
2022/07/20 09:40:59;;;;;;;8.27;4.82;;;32.70;50.10;;;;;;4991817;28;20038;-71
2022/07/20 09:43:36;;;;;;;11.05;4.47;;;32.80;49.90;;;;;;4990091;28;20026;-71
2022/07/20 09:46:23;;;;;;;6.82;4.20;;;32.90;49.60;;;;;;4991001;28;20054;-71
2022/07/20 09:48:55;;;;;;;7.55;4.28;;;33.00;49.50;;;;;;4991187;28;20122;-71
2022/07/20 09:51:28;;;;;;;10.18;4.38;;;33.10;49.20;;;;;;4977017;28;20066;-72
2022/07/20 09:53:56;;;;;;;5.07;3.80;;;33.20;47.70;;;;;;4995815;28;20029;-71
2022/07/20 09:56:24;;;;;;;11.57;4.63;;;33.30;47.00;;;;;;4993950;28;20070;-71
2022/07/20 09:58:52;;;;;;;6.45;4.30;;;33.30;47.20;;;;;;4996515;28;20033;-70
2022/07/20 10:01:22;;;;;;;10.20;4.03;;;33.40;47.00;;;;;;4990485;28;20141;-70
2022/07/20 10:03:50;;;;;;;7.45;3.88;;;33.50;46.10;;;;;;4976642;28;20469;-70
2022/07/20 10:06:18;;;;;;;6.15;3.75;;;33.60;45.20;;;;;;4994490;28;20199;-68
2022/07/20 10:08:45;;;;;;;8.00;3.38;;;33.70;44.90;;;;;;4994122;28;20028;-69
2022/07/20 10:11:13;;;;;;;5.57;3.40;;;33.80;45.30;;;;;;4995076;28;20034;-69
2022/07/20 10:13:41;;;;;;;7.00;3.50;;;33.80;44.10;;;;;;4994148;28;20050;-70
2022/07/20 10:16:26;;;;;;;6.65;3.58;;;33.90;44.40;;;;;;4993383;28;20022;-69
2022/07/20 10:18:54;;;;;;;7.78;3.55;;;34.00;44.80;;;;;;4992877;28;20100;-69
2022/07/20 10:21:33;;;;;;;7.35;3.65;;;34.00;44.30;;;;;;4993301;28;20037;-71
2022/07/20 10:24:18;;;;;;;7.93;4.70;;;34.20;44.10;;;;;;4993324;28;20042;-69
2022/07/20 10:26:46;;;;;;;12.20;4.43;;;34.20;43.80;;;;;;4993195;28;20057;-69
2022/07/20 10:29:28;;;;;;;5.03;3.30;;;34.30;43.90;;;;;;4994383;28;20034;-70
2022/07/20 10:31:57;;;;;;;5.97;3.40;;;34.40;43.80;;;;;;4991191;28;20468;-69
2022/07/20 10:34:38;;;;;;;10.07;4.50;;;34.50;43.50;;;;;;4992584;28;20104;-69
2022/07/20 10:37:39;;;;;;;7.40;3.55;;;34.50;43.60;;;;;;4976894;28;20026;-68
2022/07/20 10:40:11;;;;;;;6.82;3.70;;;34.60;43.20;;;;;;4993823;28;20034;-69
2022/07/20 10:42:44;;;;;;;4.93;3.70;;;34.70;43.10;;;;;;4993772;28;20073;-69
2022/07/20 10:45:23;;;;;;;8.27;3.27;;;34.70;42.80;;;;;;4993701;28;20046;-68
2022/07/20 10:47:49;;;;;;;5.72;3.92;;;34.80;42.80;;;;;;4992227;28;20038;-68
2022/07/20 10:50:20;;;;;;;7.93;3.28;;;34.80;42.60;;;;;;4988416;28;20054;-68
2022/07/20 10:52:48;;;;;;;7.07;3.40;;;34.90;42.80;;;;;;4993551;28;20065;-68
2022/07/20 10:55:35;;;;;;;6.07;3.97;;;35.00;42.90;;;;;;4993514;28;20037;-68
2022/07/20 10:58:05;;;;;;;5.70;3.50;;;35.00;43.00;;;;;;4965300;28;20058;-68
2022/07/20 11:00:43;;;;;;;4.45;3.50;;;35.00;42.20;;;;;;4989236;28;20080;-68
2022/07/20 11:03:13;;;;;;;7.45;4.00;;;35.10;41.80;;;;;;4993687;28;20034;-68
2022/07/20 11:05:39;;;;;;;8.98;3.72;;;35.10;42.00;;;;;;4992908;28;20104;-68
2022/07/20 11:08:06;;;;;;;6.05;3.63;;;35.20;41.60;;;;;;4992445;28;20134;-68
2022/07/20 11:10:32;;;;;;;6.32;3.45;;;35.20;41.50;;;;;;4975393;28;20074;-68
2022/07/20 11:13:07;;;;;;;5.28;3.33;;;35.20;41.40;;;;;;4990897;28;20049;-68
2022/07/20 11:15:54;;;;;;;6.13;3.60;;;35.30;41.30;;;;;;4982808;28;20110;-68
2022/07/20 11:18:23;;;;;;;5.95;2.88;;;35.30;41.30;;;;;;4992295;28;20027;-68
2022/07/20 11:20:56;;;;;;;8.18;3.40;;;35.30;41.20;;;;;;4992215;28;20121;-68
2022/07/20 11:23:25;;;;;;;6.20;3.67;;;35.40;41.20;;;;;;4992110;28;20023;-68
2022/07/20 11:25:53;;;;;;;5.05;3.45;;;35.40;40.90;;;;;;4990307;28;20046;-68
2022/07/20 11:28:32;;;;;;;5.72;3.10;;;35.50;41.20;;;;;;4993003;28;20515;-67
2022/07/20 11:30:59;;;;;;;11.02;4.00;;;35.50;41.50;;;;;;4993014;28;20449;-67
2022/07/20 11:33:38;;;;;;;8.07;3.03;;;35.60;40.60;;;;;;4992486;28;20038;-67
2022/07/20 11:36:08;;;;;;;7.80;3.40;;;35.60;40.20;;;;;;4992177;28;20034;-67
2022/07/20 11:38:45;;;;;;;4.95;3.20;;;35.60;40.00;;;;;;4992493;28;20085;-68
2022/07/20 11:41:14;;;;;;;4.07;3.22;;;35.70;40.10;;;;;;4975912;28;20026;-68
2022/07/20 11:43:40;;;;;;;5.65;3.38;;;35.80;40.20;;;;;;4991123;28;20044;-68
2022/07/20 11:46:14;;;;;;;8.52;3.72;;;35.90;40.50;;;;;;4992822;28;20034;-67
2022/07/20 11:48:42;;;;;;;6.85;3.50;;;35.90;40.60;;;;;;4990116;28;20026;-67
2022/07/20 11:51:08;;;;;;;4.45;3.03;;;35.90;40.20;;;;;;4993220;28;20133;-70
2022/07/20 11:53:40;;;;;;;6.95;4.30;;;35.90;39.80;;;;;;4991152;28;20030;-69
2022/07/20 11:56:12;;;;;;;5.47;3.38;;;35.90;39.70;;;;;;4971719;28;20018;-68
2022/07/20 11:58:39;;;;;;;6.03;3.30;;;35.90;39.50;;;;;;4991723;28;20034;-67
2022/07/20 12:01:07;;;;;;;4.78;3.40;;;35.90;40.20;;;;;;4990594;28;20030;-68
2022/07/20 12:03:38;;;;;;;7.50;3.35;;;35.90;39.60;;;;;;4990978;28;20076;-68
2022/07/20 12:06:14;;;;;;;5.88;3.60;;;35.90;39.60;;;;;;4992290;28;20038;-67
2022/07/20 12:08:41;;;;;;;6.07;3.92;;;35.90;39.60;;;;;;4991933;28;20054;-68
2022/07/20 12:11:09;;;;;;;5.32;3.53;;;36.00;39.80;;;;;;4990669;28;20022;-67
2022/07/20 12:13:49;;;;;;;7.05;4.07;;;36.00;39.40;;;;;;4991643;28;20532;-68
2022/07/20 12:16:17;;;;;;;6.75;3.53;;;36.10;39.90;;;;;;4992576;28;20420;-67
2022/07/20 12:18:50;;;;;;;8.00;3.58;;;36.10;40.90;;;;;;4992769;28;20034;-69
2022/07/20 12:21:18;;;;;;;6.10;3.45;;;36.20;40.40;;;;;;4992187;28;20030;-69
2022/07/20 12:23:46;;;;;;;5.85;3.58;;;36.30;40.10;;;;;;4992274;28;20122;-68
2022/07/20 12:26:28;;;;;;;6.03;3.42;;;36.30;39.70;;;;;;4990834;28;20038;-68
2022/07/20 12:28:56;;;;;;;6.53;3.60;;;36.30;39.50;;;;;;4980047;28;20038;-68
2022/07/20 12:31:26;;;;;;;7.03;3.60;;;36.30;38.90;;;;;;4982384;28;20031;-68
2022/07/20 12:34:09;;;;;;;4.55;3.40;;;36.40;39.60;;;;;;4991106;28;20042;-68
2022/07/20 12:36:38;;;;;;;7.75;3.47;;;36.40;39.70;;;;;;4991947;28;20482;-68
2022/07/20 12:39:07;;;;;;;6.40;3.53;;;36.50;39.80;;;;;;4990699;28;20043;-68
2022/07/20 12:41:33;;;;;;;6.15;3.38;;;36.50;39.70;;;;;;4991626;28;20483;-68
2022/07/20 12:43:59;;;;;;;5.50;3.47;;;36.60;39.00;;;;;;4973785;28;20030;-69
2022/07/20 12:46:25;;;;;;;6.18;3.50;;;36.70;39.40;;;;;;4991654;28;20046;-69
2022/07/20 12:48:51;;;;;;;6.65;3.33;;;36.70;38.30;;;;;;4991569;28;20032;-68
2022/07/20 12:51:18;;;;;;;8.48;3.40;;;36.70;38.30;;;;;;4992335;28;20081;-68